sensor_id;sensor_type;location;lat;lon;timestamp;P1;durP1;ratioP1;P2;durP2;ratioP2
51800;SDS011;37855;53.204;6.568;2023-11-19T00:00:43;39.30;;;14.73;;
51800;SDS011;37855;53.204;6.568;2023-11-19T00:03:09;35.57;;;13.53;;
51800;SDS011;37855;53.204;6.568;2023-11-19T00:05:35;39.58;;;14.43;;
51800;SDS011;37855;53.204;6.568;2023-11-19T00:08:10;42.17;;;14.43;;
51800;SDS011;37855;53.204;6.568;2023-11-19T00:10:36;44.10;;;14.27;;
51800;SDS011;37855;53.204;6.568;2023-11-19T00:13:02;39.47;;;14.10;;
51800;SDS011;37855;53.204;6.568;2023-11-19T00:15:27;41.40;;;12.77;;
51800;SDS011;37855;53.204;6.568;2023-11-19T00:17:53;46.05;;;13.25;;
51800;SDS011;37855;53.204;6.568;2023-11-19T00:20:19;41.85;;;12.55;;
51800;SDS011;37855;53.204;6.568;2023-11-19T00:22:47;38.20;;;11.47;;
51800;SDS011;37855;53.204;6.568;2023-11-19T00:25:16;41.95;;;11.02;;
51800;SDS011;37855;53.204;6.568;2023-11-19T00:27:43;34.17;;;10.60;;
51800;SDS011;37855;53.204;6.568;2023-11-19T00:30:11;33.50;;;9.60;;
51800;SDS011;37855;53.204;6.568;2023-11-19T00:32:39;37.67;;;10.07;;
51800;SDS011;37855;53.204;6.568;2023-11-19T00:35:05;43.37;;;9.47;;
51800;SDS011;37855;53.204;6.568;2023-11-19T00:37:33;34.08;;;9.43;;
51800;SDS011;37855;53.204;6.568;2023-11-19T00:39:59;34.03;;;9.55;;
51800;SDS011;37855;53.204;6.568;2023-11-19T00:42:25;37.47;;;8.50;;
51800;SDS011;37855;53.204;6.568;2023-11-19T00:44:51;26.20;;;7.75;;
51800;SDS011;37855;53.204;6.568;2023-11-19T00:47:16;30.95;;;7.70;;
51800;SDS011;37855;53.204;6.568;2023-11-19T00:49:45;31.63;;;7.90;;
51800;SDS011;37855;53.204;6.568;2023-11-19T00:52:15;36.20;;;7.03;;
51800;SDS011;37855;53.204;6.568;2023-11-19T00:54:41;39.85;;;7.72;;
51800;SDS011;37855;53.204;6.568;2023-11-19T00:57:07;32.63;;;6.72;;
51800;SDS011;37855;53.204;6.568;2023-11-19T00:59:33;33.90;;;6.85;;
51800;SDS011;37855;53.204;6.568;2023-11-19T01:02:00;40.87;;;7.80;;
51800;SDS011;37855;53.204;6.568;2023-11-19T01:04:32;36.00;;;7.32;;
51800;SDS011;37855;53.204;6.568;2023-11-19T01:07:02;27.10;;;6.57;;
51800;SDS011;37855;53.204;6.568;2023-11-19T01:09:32;34.37;;;6.33;;
51800;SDS011;37855;53.204;6.568;2023-11-19T01:11:59;33.95;;;5.43;;
51800;SDS011;37855;53.204;6.568;2023-11-19T01:14:27;33.63;;;6.97;;
51800;SDS011;37855;53.204;6.568;2023-11-19T01:16:54;33.42;;;5.15;;
51800;SDS011;37855;53.204;6.568;2023-11-19T01:19:23;33.40;;;6.07;;
51800;SDS011;37855;53.204;6.568;2023-11-19T01:21:50;33.13;;;5.20;;
51800;SDS011;37855;53.204;6.568;2023-11-19T01:24:16;36.60;;;4.88;;
51800;SDS011;37855;53.204;6.568;2023-11-19T01:26:43;33.90;;;5.18;;
51800;SDS011;37855;53.204;6.568;2023-11-19T01:29:11;32.03;;;5.40;;
51800;SDS011;37855;53.204;6.568;2023-11-19T01:31:39;33.27;;;4.80;;
51800;SDS011;37855;53.204;6.568;2023-11-19T01:34:08;33.55;;;5.57;;
51800;SDS011;37855;53.204;6.568;2023-11-19T01:36:35;31.33;;;5.10;;
51800;SDS011;37855;53.204;6.568;2023-11-19T01:39:02;34.85;;;4.70;;
51800;SDS011;37855;53.204;6.568;2023-11-19T01:41:29;35.97;;;4.93;;
51800;SDS011;37855;53.204;6.568;2023-11-19T01:44:01;35.63;;;4.50;;
51800;SDS011;37855;53.204;6.568;2023-11-19T01:46:27;30.88;;;4.60;;
51800;SDS011;37855;53.204;6.568;2023-11-19T01:48:54;34.72;;;4.60;;
51800;SDS011;37855;53.204;6.568;2023-11-19T01:51:20;29.00;;;4.78;;
51800;SDS011;37855;53.204;6.568;2023-11-19T01:53:47;31.90;;;5.10;;
51800;SDS011;37855;53.204;6.568;2023-11-19T01:56:14;37.03;;;4.50;;
51800;SDS011;37855;53.204;6.568;2023-11-19T01:58:44;36.65;;;4.78;;
51800;SDS011;37855;53.204;6.568;2023-11-19T02:01:11;36.22;;;4.43;;
51800;SDS011;37855;53.204;6.568;2023-11-19T02:03:38;43.80;;;5.00;;
51800;SDS011;37855;53.204;6.568;2023-11-19T02:06:04;32.20;;;4.70;;
51800;SDS011;37855;53.204;6.568;2023-11-19T02:08:30;29.63;;;4.50;;
51800;SDS011;37855;53.204;6.568;2023-11-19T02:10:56;30.92;;;4.72;;
51800;SDS011;37855;53.204;6.568;2023-11-19T02:13:22;31.05;;;4.63;;
51800;SDS011;37855;53.204;6.568;2023-11-19T02:15:51;29.60;;;4.60;;
51800;SDS011;37855;53.204;6.568;2023-11-19T02:18:18;30.50;;;4.83;;
51800;SDS011;37855;53.204;6.568;2023-11-19T02:20:49;34.53;;;4.55;;
51800;SDS011;37855;53.204;6.568;2023-11-19T02:23:15;36.78;;;4.82;;
51800;SDS011;37855;53.204;6.568;2023-11-19T02:25:41;31.40;;;4.67;;
51800;SDS011;37855;53.204;6.568;2023-11-19T02:28:08;27.47;;;4.80;;
51800;SDS011;37855;53.204;6.568;2023-11-19T02:30:37;29.70;;;4.40;;
51800;SDS011;37855;53.204;6.568;2023-11-19T02:33:03;41.70;;;5.38;;
51800;SDS011;37855;53.204;6.568;2023-11-19T02:35:31;37.35;;;5.22;;
51800;SDS011;37855;53.204;6.568;2023-11-19T02:37:57;32.03;;;4.88;;
51800;SDS011;37855;53.204;6.568;2023-11-19T02:40:28;34.57;;;5.40;;
51800;SDS011;37855;53.204;6.568;2023-11-19T02:42:54;30.83;;;5.00;;
51800;SDS011;37855;53.204;6.568;2023-11-19T02:45:24;38.30;;;4.97;;
51800;SDS011;37855;53.204;6.568;2023-11-19T02:47:51;34.83;;;5.05;;
51800;SDS011;37855;53.204;6.568;2023-11-19T02:50:20;34.17;;;5.43;;
51800;SDS011;37855;53.204;6.568;2023-11-19T02:52:53;33.37;;;4.47;;
51800;SDS011;37855;53.204;6.568;2023-11-19T02:55:23;37.58;;;5.00;;
51800;SDS011;37855;53.204;6.568;2023-11-19T02:57:50;33.47;;;4.40;;
51800;SDS011;37855;53.204;6.568;2023-11-19T03:02:48;42.75;;;4.95;;
51800;SDS011;37855;53.204;6.568;2023-11-19T03:05:23;35.27;;;4.90;;
51800;SDS011;37855;53.204;6.568;2023-11-19T03:07:51;31.88;;;4.50;;
51800;SDS011;37855;53.204;6.568;2023-11-19T03:10:17;35.63;;;5.05;;
51800;SDS011;37855;53.204;6.568;2023-11-19T03:12:44;29.13;;;4.45;;
51800;SDS011;37855;53.204;6.568;2023-11-19T03:15:10;34.00;;;4.28;;
51800;SDS011;37855;53.204;6.568;2023-11-19T03:17:39;27.17;;;4.37;;
51800;SDS011;37855;53.204;6.568;2023-11-19T03:20:07;30.17;;;4.70;;
51800;SDS011;37855;53.204;6.568;2023-11-19T03:22:40;34.80;;;4.32;;
51800;SDS011;37855;53.204;6.568;2023-11-19T03:25:09;31.73;;;4.72;;
51800;SDS011;37855;53.204;6.568;2023-11-19T03:27:35;34.42;;;5.18;;
51800;SDS011;37855;53.204;6.568;2023-11-19T03:30:02;34.97;;;4.83;;
51800;SDS011;37855;53.204;6.568;2023-11-19T03:32:30;34.95;;;4.63;;
51800;SDS011;37855;53.204;6.568;2023-11-19T03:34:57;35.63;;;5.10;;
51800;SDS011;37855;53.204;6.568;2023-11-19T03:37:23;29.85;;;4.07;;
51800;SDS011;37855;53.204;6.568;2023-11-19T03:39:49;30.10;;;4.40;;
51800;SDS011;37855;53.204;6.568;2023-11-19T03:42:14;30.23;;;4.45;;
51800;SDS011;37855;53.204;6.568;2023-11-19T03:44:40;29.93;;;5.10;;
51800;SDS011;37855;53.204;6.568;2023-11-19T03:47:06;30.77;;;4.10;;
51800;SDS011;37855;53.204;6.568;2023-11-19T03:49:31;33.20;;;4.67;;
51800;SDS011;37855;53.204;6.568;2023-11-19T03:51:57;30.80;;;4.70;;
51800;SDS011;37855;53.204;6.568;2023-11-19T03:54:23;32.57;;;5.70;;
51800;SDS011;37855;53.204;6.568;2023-11-19T03:56:48;26.17;;;4.43;;
51800;SDS011;37855;53.204;6.568;2023-11-19T03:59:14;26.00;;;4.37;;
51800;SDS011;37855;53.204;6.568;2023-11-19T04:01:40;32.20;;;4.68;;
51800;SDS011;37855;53.204;6.568;2023-11-19T04:04:06;33.13;;;4.63;;
51800;SDS011;37855;53.204;6.568;2023-11-19T04:06:32;28.93;;;4.67;;
51800;SDS011;37855;53.204;6.568;2023-11-19T04:08:57;31.38;;;4.50;;
51800;SDS011;37855;53.204;6.568;2023-11-19T04:11:23;39.80;;;5.33;;
51800;SDS011;37855;53.204;6.568;2023-11-19T04:13:49;38.75;;;4.53;;
51800;SDS011;37855;53.204;6.568;2023-11-19T04:16:14;30.27;;;4.87;;
51800;SDS011;37855;53.204;6.568;2023-11-19T04:18:40;33.47;;;4.63;;
51800;SDS011;37855;53.204;6.568;2023-11-19T04:21:07;28.57;;;4.47;;
51800;SDS011;37855;53.204;6.568;2023-11-19T04:23:33;29.13;;;4.65;;
51800;SDS011;37855;53.204;6.568;2023-11-19T04:26:01;29.63;;;4.43;;
51800;SDS011;37855;53.204;6.568;2023-11-19T04:28:29;29.58;;;4.68;;
51800;SDS011;37855;53.204;6.568;2023-11-19T04:30:55;35.38;;;5.00;;
51800;SDS011;37855;53.204;6.568;2023-11-19T04:33:22;32.03;;;4.22;;
51800;SDS011;37855;53.204;6.568;2023-11-19T04:35:47;30.63;;;5.03;;
51800;SDS011;37855;53.204;6.568;2023-11-19T04:38:13;37.28;;;4.78;;
51800;SDS011;37855;53.204;6.568;2023-11-19T04:40:39;28.73;;;4.40;;
51800;SDS011;37855;53.204;6.568;2023-11-19T04:43:05;32.92;;;4.35;;
51800;SDS011;37855;53.204;6.568;2023-11-19T04:45:32;32.22;;;5.13;;
51800;SDS011;37855;53.204;6.568;2023-11-19T04:47:58;38.47;;;4.50;;
51800;SDS011;37855;53.204;6.568;2023-11-19T04:50:23;33.70;;;5.43;;
51800;SDS011;37855;53.204;6.568;2023-11-19T04:52:52;33.08;;;4.57;;
51800;SDS011;37855;53.204;6.568;2023-11-19T04:55:18;40.57;;;5.60;;
51800;SDS011;37855;53.204;6.568;2023-11-19T04:57:44;36.90;;;4.60;;
51800;SDS011;37855;53.204;6.568;2023-11-19T05:00:10;35.50;;;5.07;;
51800;SDS011;37855;53.204;6.568;2023-11-19T05:02:39;44.25;;;5.03;;
51800;SDS011;37855;53.204;6.568;2023-11-19T05:05:05;33.63;;;4.65;;
51800;SDS011;37855;53.204;6.568;2023-11-19T05:07:31;36.17;;;5.28;;
51800;SDS011;37855;53.204;6.568;2023-11-19T05:10:03;35.20;;;5.17;;
51800;SDS011;37855;53.204;6.568;2023-11-19T05:12:31;32.20;;;5.05;;
51800;SDS011;37855;53.204;6.568;2023-11-19T05:14:56;37.73;;;4.97;;
51800;SDS011;37855;53.204;6.568;2023-11-19T05:17:23;33.17;;;4.97;;
51800;SDS011;37855;53.204;6.568;2023-11-19T05:19:49;30.75;;;5.18;;
51800;SDS011;37855;53.204;6.568;2023-11-19T05:22:14;35.83;;;4.90;;
51800;SDS011;37855;53.204;6.568;2023-11-19T05:24:40;38.13;;;5.03;;
51800;SDS011;37855;53.204;6.568;2023-11-19T05:27:06;36.60;;;4.97;;
51800;SDS011;37855;53.204;6.568;2023-11-19T05:29:32;32.70;;;4.95;;
51800;SDS011;37855;53.204;6.568;2023-11-19T05:31:58;35.35;;;5.90;;
51800;SDS011;37855;53.204;6.568;2023-11-19T05:34:24;37.53;;;5.28;;
51800;SDS011;37855;53.204;6.568;2023-11-19T05:36:53;27.13;;;4.37;;
51800;SDS011;37855;53.204;6.568;2023-11-19T05:39:18;41.30;;;5.20;;
51800;SDS011;37855;53.204;6.568;2023-11-19T05:41:45;41.33;;;5.13;;
51800;SDS011;37855;53.204;6.568;2023-11-19T05:44:10;36.80;;;5.97;;
51800;SDS011;37855;53.204;6.568;2023-11-19T05:46:36;37.65;;;4.85;;
51800;SDS011;37855;53.204;6.568;2023-11-19T05:49:05;42.83;;;5.07;;
51800;SDS011;37855;53.204;6.568;2023-11-19T05:51:31;34.35;;;5.15;;
51800;SDS011;37855;53.204;6.568;2023-11-19T05:53:56;37.63;;;4.87;;
51800;SDS011;37855;53.204;6.568;2023-11-19T05:56:22;33.22;;;4.80;;
51800;SDS011;37855;53.204;6.568;2023-11-19T05:58:48;41.38;;;5.68;;
51800;SDS011;37855;53.204;6.568;2023-11-19T06:01:14;34.53;;;5.53;;
51800;SDS011;37855;53.204;6.568;2023-11-19T06:03:40;33.15;;;5.63;;
51800;SDS011;37855;53.204;6.568;2023-11-19T06:06:08;39.17;;;4.93;;
51800;SDS011;37855;53.204;6.568;2023-11-19T06:08:34;38.55;;;5.35;;
51800;SDS011;37855;53.204;6.568;2023-11-19T06:11:00;28.27;;;5.23;;
51800;SDS011;37855;53.204;6.568;2023-11-19T06:13:26;29.67;;;4.88;;
51800;SDS011;37855;53.204;6.568;2023-11-19T06:15:52;32.10;;;4.97;;
51800;SDS011;37855;53.204;6.568;2023-11-19T06:18:17;36.73;;;4.93;;
51800;SDS011;37855;53.204;6.568;2023-11-19T06:20:46;34.90;;;5.35;;
51800;SDS011;37855;53.204;6.568;2023-11-19T06:23:11;34.28;;;5.22;;
51800;SDS011;37855;53.204;6.568;2023-11-19T06:25:38;33.80;;;6.18;;
51800;SDS011;37855;53.204;6.568;2023-11-19T06:28:03;32.57;;;4.33;;
51800;SDS011;37855;53.204;6.568;2023-11-19T06:30:29;32.88;;;5.90;;
51800;SDS011;37855;53.204;6.568;2023-11-19T06:32:57;31.73;;;5.13;;
51800;SDS011;37855;53.204;6.568;2023-11-19T06:35:23;34.13;;;4.67;;
51800;SDS011;37855;53.204;6.568;2023-11-19T06:37:49;40.72;;;4.75;;
51800;SDS011;37855;53.204;6.568;2023-11-19T06:40:17;37.90;;;5.07;;
51800;SDS011;37855;53.204;6.568;2023-11-19T06:42:43;37.58;;;5.45;;
51800;SDS011;37855;53.204;6.568;2023-11-19T06:45:08;38.77;;;5.13;;
51800;SDS011;37855;53.204;6.568;2023-11-19T06:47:37;34.03;;;5.32;;
51800;SDS011;37855;53.204;6.568;2023-11-19T06:50:03;35.70;;;5.20;;
51800;SDS011;37855;53.204;6.568;2023-11-19T06:52:31;38.08;;;4.43;;
51800;SDS011;37855;53.204;6.568;2023-11-19T06:54:56;30.50;;;5.00;;
51800;SDS011;37855;53.204;6.568;2023-11-19T06:57:22;30.83;;;4.63;;
51800;SDS011;37855;53.204;6.568;2023-11-19T06:59:48;38.25;;;5.15;;
51800;SDS011;37855;53.204;6.568;2023-11-19T07:02:14;40.80;;;5.45;;
51800;SDS011;37855;53.204;6.568;2023-11-19T07:04:40;30.20;;;5.07;;
51800;SDS011;37855;53.204;6.568;2023-11-19T07:07:05;32.27;;;4.80;;
51800;SDS011;37855;53.204;6.568;2023-11-19T07:09:31;42.67;;;5.53;;
51800;SDS011;37855;53.204;6.568;2023-11-19T07:11:57;30.80;;;4.90;;
51800;SDS011;37855;53.204;6.568;2023-11-19T07:14:24;42.60;;;5.13;;
51800;SDS011;37855;53.204;6.568;2023-11-19T07:16:51;36.25;;;5.68;;
51800;SDS011;37855;53.204;6.568;2023-11-19T07:19:17;42.00;;;5.87;;
51800;SDS011;37855;53.204;6.568;2023-11-19T07:21:43;38.15;;;5.65;;
51800;SDS011;37855;53.204;6.568;2023-11-19T07:24:09;38.30;;;4.63;;
51800;SDS011;37855;53.204;6.568;2023-11-19T07:26:36;34.30;;;5.30;;
51800;SDS011;37855;53.204;6.568;2023-11-19T07:29:05;35.47;;;4.88;;
51800;SDS011;37855;53.204;6.568;2023-11-19T07:31:32;40.67;;;5.07;;
51800;SDS011;37855;53.204;6.568;2023-11-19T07:33:58;32.67;;;6.10;;
51800;SDS011;37855;53.204;6.568;2023-11-19T07:36:24;33.13;;;4.60;;
51800;SDS011;37855;53.204;6.568;2023-11-19T07:38:49;31.67;;;4.87;;
51800;SDS011;37855;53.204;6.568;2023-11-19T07:41:15;39.13;;;5.68;;
51800;SDS011;37855;53.204;6.568;2023-11-19T07:43:43;35.70;;;4.43;;
51800;SDS011;37855;53.204;6.568;2023-11-19T07:46:15;33.17;;;4.88;;
51800;SDS011;37855;53.204;6.568;2023-11-19T07:48:40;40.47;;;4.63;;
51800;SDS011;37855;53.204;6.568;2023-11-19T07:51:07;32.38;;;4.45;;
51800;SDS011;37855;53.204;6.568;2023-11-19T07:53:33;36.50;;;4.55;;
51800;SDS011;37855;53.204;6.568;2023-11-19T07:55:59;34.47;;;4.70;;
51800;SDS011;37855;53.204;6.568;2023-11-19T07:58:25;33.85;;;5.35;;
51800;SDS011;37855;53.204;6.568;2023-11-19T08:00:53;29.58;;;4.57;;
51800;SDS011;37855;53.204;6.568;2023-11-19T08:03:19;32.47;;;4.87;;
51800;SDS011;37855;53.204;6.568;2023-11-19T08:05:48;29.33;;;5.20;;
51800;SDS011;37855;53.204;6.568;2023-11-19T08:08:14;38.10;;;5.13;;
51800;SDS011;37855;53.204;6.568;2023-11-19T08:10:40;42.73;;;5.53;;
51800;SDS011;37855;53.204;6.568;2023-11-19T08:13:06;40.30;;;5.43;;
51800;SDS011;37855;53.204;6.568;2023-11-19T08:15:32;32.13;;;5.03;;
51800;SDS011;37855;53.204;6.568;2023-11-19T08:18:00;36.05;;;5.57;;
51800;SDS011;37855;53.204;6.568;2023-11-19T08:20:27;37.60;;;4.53;;
51800;SDS011;37855;53.204;6.568;2023-11-19T08:22:53;35.60;;;4.57;;
51800;SDS011;37855;53.204;6.568;2023-11-19T08:25:18;36.25;;;4.43;;
51800;SDS011;37855;53.204;6.568;2023-11-19T08:27:44;39.43;;;5.80;;
51800;SDS011;37855;53.204;6.568;2023-11-19T08:30:10;36.53;;;5.05;;
51800;SDS011;37855;53.204;6.568;2023-11-19T08:32:36;36.85;;;5.00;;
51800;SDS011;37855;53.204;6.568;2023-11-19T08:35:02;34.30;;;4.30;;
51800;SDS011;37855;53.204;6.568;2023-11-19T08:37:28;30.23;;;4.60;;
51800;SDS011;37855;53.204;6.568;2023-11-19T08:39:56;39.75;;;4.75;;
51800;SDS011;37855;53.204;6.568;2023-11-19T08:42:21;30.40;;;5.07;;
51800;SDS011;37855;53.204;6.568;2023-11-19T08:44:50;33.87;;;4.53;;
51800;SDS011;37855;53.204;6.568;2023-11-19T08:47:19;33.30;;;4.50;;
51800;SDS011;37855;53.204;6.568;2023-11-19T08:49:45;34.23;;;4.60;;
51800;SDS011;37855;53.204;6.568;2023-11-19T08:52:11;33.27;;;4.83;;
51800;SDS011;37855;53.204;6.568;2023-11-19T08:54:37;33.20;;;4.47;;
51800;SDS011;37855;53.204;6.568;2023-11-19T08:57:03;27.38;;;4.32;;
51800;SDS011;37855;53.204;6.568;2023-11-19T08:59:34;32.37;;;4.67;;
51800;SDS011;37855;53.204;6.568;2023-11-19T09:02:00;29.00;;;4.50;;
51800;SDS011;37855;53.204;6.568;2023-11-19T09:04:27;31.15;;;4.30;;
51800;SDS011;37855;53.204;6.568;2023-11-19T09:06:52;40.10;;;5.63;;
51800;SDS011;37855;53.204;6.568;2023-11-19T09:09:18;35.13;;;5.67;;
51800;SDS011;37855;53.204;6.568;2023-11-19T09:11:44;34.75;;;4.95;;
51800;SDS011;37855;53.204;6.568;2023-11-19T09:14:15;35.97;;;5.10;;
51800;SDS011;37855;53.204;6.568;2023-11-19T09:16:47;30.67;;;4.82;;
51800;SDS011;37855;53.204;6.568;2023-11-19T09:19:13;35.67;;;5.82;;
51800;SDS011;37855;53.204;6.568;2023-11-19T09:21:38;35.90;;;4.77;;
51800;SDS011;37855;53.204;6.568;2023-11-19T09:24:07;40.90;;;6.35;;
51800;SDS011;37855;53.204;6.568;2023-11-19T09:26:32;34.50;;;5.18;;
51800;SDS011;37855;53.204;6.568;2023-11-19T09:28:59;38.85;;;5.63;;
51800;SDS011;37855;53.204;6.568;2023-11-19T09:31:25;38.67;;;5.00;;
51800;SDS011;37855;53.204;6.568;2023-11-19T09:33:52;37.05;;;5.40;;
51800;SDS011;37855;53.204;6.568;2023-11-19T09:36:18;33.60;;;5.20;;
51800;SDS011;37855;53.204;6.568;2023-11-19T09:38:45;35.65;;;5.28;;
51800;SDS011;37855;53.204;6.568;2023-11-19T09:41:11;30.67;;;5.33;;
51800;SDS011;37855;53.204;6.568;2023-11-19T09:43:41;29.55;;;6.05;;
51800;SDS011;37855;53.204;6.568;2023-11-19T09:46:10;37.38;;;4.57;;
51800;SDS011;37855;53.204;6.568;2023-11-19T09:48:38;32.08;;;5.60;;
51800;SDS011;37855;53.204;6.568;2023-11-19T09:51:08;34.78;;;4.60;;
51800;SDS011;37855;53.204;6.568;2023-11-19T09:53:37;38.33;;;5.30;;
51800;SDS011;37855;53.204;6.568;2023-11-19T09:56:03;40.85;;;5.30;;
51800;SDS011;37855;53.204;6.568;2023-11-19T09:58:31;33.65;;;5.15;;
51800;SDS011;37855;53.204;6.568;2023-11-19T10:00:58;40.08;;;5.68;;
51800;SDS011;37855;53.204;6.568;2023-11-19T10:03:24;31.47;;;4.90;;
51800;SDS011;37855;53.204;6.568;2023-11-19T10:05:56;31.55;;;4.95;;
51800;SDS011;37855;53.204;6.568;2023-11-19T10:08:23;30.42;;;4.53;;
51800;SDS011;37855;53.204;6.568;2023-11-19T10:10:48;32.83;;;4.47;;
51800;SDS011;37855;53.204;6.568;2023-11-19T10:13:14;35.03;;;5.13;;
51800;SDS011;37855;53.204;6.568;2023-11-19T10:15:40;29.85;;;4.68;;
51800;SDS011;37855;53.204;6.568;2023-11-19T10:18:05;34.37;;;5.13;;
51800;SDS011;37855;53.204;6.568;2023-11-19T10:20:35;30.05;;;4.57;;
51800;SDS011;37855;53.204;6.568;2023-11-19T10:23:01;26.27;;;4.15;;
51800;SDS011;37855;53.204;6.568;2023-11-19T10:25:28;39.40;;;5.00;;
51800;SDS011;37855;53.204;6.568;2023-11-19T10:27:54;30.58;;;4.85;;
51800;SDS011;37855;53.204;6.568;2023-11-19T10:30:25;31.40;;;4.75;;
51800;SDS011;37855;53.204;6.568;2023-11-19T10:33:11;29.27;;;5.00;;
51800;SDS011;37855;53.204;6.568;2023-11-19T10:38:38;36.57;;;5.13;;
51800;SDS011;37855;53.204;6.568;2023-11-19T10:41:05;28.75;;;4.68;;
51800;SDS011;37855;53.204;6.568;2023-11-19T10:43:31;29.30;;;4.55;;
51800;SDS011;37855;53.204;6.568;2023-11-19T10:46:12;39.03;;;4.80;;
51800;SDS011;37855;53.204;6.568;2023-11-19T10:48:39;32.55;;;4.30;;
51800;SDS011;37855;53.204;6.568;2023-11-19T10:51:05;32.00;;;5.33;;
51800;SDS011;37855;53.204;6.568;2023-11-19T10:53:33;29.70;;;4.07;;
51800;SDS011;37855;53.204;6.568;2023-11-19T10:56:01;28.75;;;4.75;;
51800;SDS011;37855;53.204;6.568;2023-11-19T10:58:37;33.30;;;4.63;;
51800;SDS011;37855;53.204;6.568;2023-11-19T11:01:13;34.10;;;4.70;;
51800;SDS011;37855;53.204;6.568;2023-11-19T11:03:44;34.27;;;4.80;;
51800;SDS011;37855;53.204;6.568;2023-11-19T11:06:12;30.63;;;4.05;;
51800;SDS011;37855;53.204;6.568;2023-11-19T11:08:38;34.97;;;5.15;;
51800;SDS011;37855;53.204;6.568;2023-11-19T11:11:05;29.35;;;4.35;;
51800;SDS011;37855;53.204;6.568;2023-11-19T11:13:33;24.70;;;4.07;;
51800;SDS011;37855;53.204;6.568;2023-11-19T11:16:01;40.53;;;5.47;;
51800;SDS011;37855;53.204;6.568;2023-11-19T11:18:32;26.52;;;3.60;;
51800;SDS011;37855;53.204;6.568;2023-11-19T11:21:00;31.10;;;4.70;;
51800;SDS011;37855;53.204;6.568;2023-11-19T11:29:01;32.43;;;4.40;;
51800;SDS011;37855;53.204;6.568;2023-11-19T11:31:41;26.20;;;4.55;;
51800;SDS011;37855;53.204;6.568;2023-11-19T11:39:36;31.92;;;5.07;;
51800;SDS011;37855;53.204;6.568;2023-11-19T11:50:13;32.10;;;4.47;;
51800;SDS011;37855;53.204;6.568;2023-11-19T11:55:37;30.80;;;4.10;;
51800;SDS011;37855;53.204;6.568;2023-11-19T11:58:17;30.45;;;4.20;;
51800;SDS011;37855;53.204;6.568;2023-11-19T12:00:47;31.73;;;4.82;;
51800;SDS011;37855;53.204;6.568;2023-11-19T12:03:13;26.55;;;4.60;;
51800;SDS011;37855;53.204;6.568;2023-11-19T12:05:45;33.67;;;4.80;;
51800;SDS011;37855;53.204;6.568;2023-11-19T12:08:12;29.75;;;4.18;;
51800;SDS011;37855;53.204;6.568;2023-11-19T12:10:50;32.28;;;4.38;;
51800;SDS011;37855;53.204;6.568;2023-11-19T12:13:17;31.30;;;4.22;;
51800;SDS011;37855;53.204;6.568;2023-11-19T12:18:29;20.23;;;3.43;;
51800;SDS011;37855;53.204;6.568;2023-11-19T12:20:59;25.45;;;4.25;;
51800;SDS011;37855;53.204;6.568;2023-11-19T12:23:26;28.85;;;4.75;;
51800;SDS011;37855;53.204;6.568;2023-11-19T12:25:54;26.63;;;4.35;;
51800;SDS011;37855;53.204;6.568;2023-11-19T12:28:20;30.35;;;4.47;;
51800;SDS011;37855;53.204;6.568;2023-11-19T12:30:46;30.07;;;5.40;;
51800;SDS011;37855;53.204;6.568;2023-11-19T12:33:13;31.38;;;5.07;;
51800;SDS011;37855;53.204;6.568;2023-11-19T12:35:41;35.50;;;5.15;;
51800;SDS011;37855;53.204;6.568;2023-11-19T12:38:25;24.05;;;4.55;;
51800;SDS011;37855;53.204;6.568;2023-11-19T12:41:03;32.30;;;4.70;;
51800;SDS011;37855;53.204;6.568;2023-11-19T12:43:33;27.73;;;3.97;;
51800;SDS011;37855;53.204;6.568;2023-11-19T12:46:03;29.95;;;4.53;;
51800;SDS011;37855;53.204;6.568;2023-11-19T12:48:42;23.55;;;4.45;;
51800;SDS011;37855;53.204;6.568;2023-11-19T12:51:07;25.10;;;4.17;;
51800;SDS011;37855;53.204;6.568;2023-11-19T12:53:46;32.38;;;5.45;;
51800;SDS011;37855;53.204;6.568;2023-11-19T12:56:19;21.67;;;3.65;;
51800;SDS011;37855;53.204;6.568;2023-11-19T12:58:45;30.25;;;4.30;;
51800;SDS011;37855;53.204;6.568;2023-11-19T13:01:15;19.40;;;3.27;;
51800;SDS011;37855;53.204;6.568;2023-11-19T13:03:48;35.33;;;4.63;;
51800;SDS011;37855;53.204;6.568;2023-11-19T13:06:14;33.13;;;5.22;;
51800;SDS011;37855;53.204;6.568;2023-11-19T13:08:46;31.57;;;4.80;;
51800;SDS011;37855;53.204;6.568;2023-11-19T13:11:33;22.33;;;3.75;;
51800;SDS011;37855;53.204;6.568;2023-11-19T13:14:01;23.85;;;3.90;;
51800;SDS011;37855;53.204;6.568;2023-11-19T13:16:29;32.67;;;4.05;;
51800;SDS011;37855;53.204;6.568;2023-11-19T13:18:55;26.48;;;4.30;;
51800;SDS011;37855;53.204;6.568;2023-11-19T13:21:22;21.17;;;3.47;;
51800;SDS011;37855;53.204;6.568;2023-11-19T13:23:48;32.35;;;3.72;;
51800;SDS011;37855;53.204;6.568;2023-11-19T13:26:14;27.85;;;4.97;;
51800;SDS011;37855;53.204;6.568;2023-11-19T13:28:39;26.00;;;4.33;;
51800;SDS011;37855;53.204;6.568;2023-11-19T13:31:05;21.20;;;3.63;;
51800;SDS011;37855;53.204;6.568;2023-11-19T13:33:31;28.58;;;4.57;;
51800;SDS011;37855;53.204;6.568;2023-11-19T13:36:00;31.43;;;4.10;;
51800;SDS011;37855;53.204;6.568;2023-11-19T13:38:31;28.25;;;4.05;;
51800;SDS011;37855;53.204;6.568;2023-11-19T13:41:02;20.10;;;3.50;;
51800;SDS011;37855;53.204;6.568;2023-11-19T13:43:29;31.88;;;4.55;;
51800;SDS011;37855;53.204;6.568;2023-11-19T13:45:56;28.83;;;4.35;;
51800;SDS011;37855;53.204;6.568;2023-11-19T13:48:26;20.63;;;3.27;;
51800;SDS011;37855;53.204;6.568;2023-11-19T13:50:53;26.88;;;3.65;;
51800;SDS011;37855;53.204;6.568;2023-11-19T13:53:25;24.58;;;3.80;;
51800;SDS011;37855;53.204;6.568;2023-11-19T13:55:51;25.15;;;4.47;;
51800;SDS011;37855;53.204;6.568;2023-11-19T13:58:18;27.05;;;4.07;;
51800;SDS011;37855;53.204;6.568;2023-11-19T14:00:46;25.90;;;4.10;;
51800;SDS011;37855;53.204;6.568;2023-11-19T14:03:12;29.67;;;4.43;;
51800;SDS011;37855;53.204;6.568;2023-11-19T14:05:38;28.00;;;4.23;;
51800;SDS011;37855;53.204;6.568;2023-11-19T14:08:04;21.40;;;3.80;;
51800;SDS011;37855;53.204;6.568;2023-11-19T14:10:37;29.17;;;4.68;;
51800;SDS011;37855;53.204;6.568;2023-11-19T14:13:04;28.85;;;4.18;;
51800;SDS011;37855;53.204;6.568;2023-11-19T14:15:30;25.15;;;4.05;;
51800;SDS011;37855;53.204;6.568;2023-11-19T14:17:56;27.03;;;4.30;;
51800;SDS011;37855;53.204;6.568;2023-11-19T14:20:25;32.35;;;4.10;;
51800;SDS011;37855;53.204;6.568;2023-11-19T14:22:51;25.35;;;3.75;;
51800;SDS011;37855;53.204;6.568;2023-11-19T14:25:17;29.30;;;4.37;;
51800;SDS011;37855;53.204;6.568;2023-11-19T14:27:44;26.90;;;3.97;;
51800;SDS011;37855;53.204;6.568;2023-11-19T14:30:13;21.73;;;3.33;;
51800;SDS011;37855;53.204;6.568;2023-11-19T14:32:42;25.98;;;4.05;;
51800;SDS011;37855;53.204;6.568;2023-11-19T14:35:13;30.45;;;4.20;;
51800;SDS011;37855;53.204;6.568;2023-11-19T14:37:39;32.27;;;3.93;;
51800;SDS011;37855;53.204;6.568;2023-11-19T14:40:05;22.38;;;3.75;;
51800;SDS011;37855;53.204;6.568;2023-11-19T14:42:33;24.25;;;4.00;;
51800;SDS011;37855;53.204;6.568;2023-11-19T14:44:59;26.43;;;3.80;;
51800;SDS011;37855;53.204;6.568;2023-11-19T14:47:29;25.30;;;4.07;;
51800;SDS011;37855;53.204;6.568;2023-11-19T14:50:00;28.38;;;4.10;;
51800;SDS011;37855;53.204;6.568;2023-11-19T14:52:26;24.50;;;3.87;;
51800;SDS011;37855;53.204;6.568;2023-11-19T14:54:52;24.10;;;4.67;;
51800;SDS011;37855;53.204;6.568;2023-11-19T14:57:19;27.10;;;3.92;;
51800;SDS011;37855;53.204;6.568;2023-11-19T14:59:44;19.93;;;3.20;;
51800;SDS011;37855;53.204;6.568;2023-11-19T15:02:11;32.63;;;4.70;;
51800;SDS011;37855;53.204;6.568;2023-11-19T15:04:36;28.58;;;4.22;;